sensor_id;sensor_type;location;lat;lon;timestamp;pressure;altitude;pressure_sealevel;temperature;humidity
9419;BME280;4748;50.802;7.132;2022-09-29T03:32:26;99444.41;;;7.11;100.00
9419;BME280;4748;50.802;7.132;2022-09-29T03:34:51;99443.97;;;7.14;100.00
9419;BME280;4748;50.802;7.132;2022-09-29T03:37:17;99443.97;;;7.14;100.00
9419;BME280;4748;50.802;7.132;2022-09-29T03:39:42;99440.81;;;7.06;100.00
9419;BME280;4748;50.802;7.132;2022-09-29T03:42:07;99434.13;;;7.14;100.00
9419;BME280;4748;50.802;7.132;2022-09-29T03:44:33;99437.97;;;7.18;100.00
9419;BME280;4748;50.802;7.132;2022-09-29T03:46:58;99438.31;;;7.33;100.00
9419;BME280;4748;50.802;7.132;2022-09-29T03:49:24;99445.38;;;7.28;100.00
9419;BME280;4748;50.802;7.132;2022-09-29T03:51:50;99446.06;;;7.35;100.00
9419;BME280;4748;50.802;7.132;2022-09-29T03:54:16;99441.22;;;7.43;100.00
9419;BME280;4748;50.802;7.132;2022-09-29T03:56:41;99440.28;;;7.38;100.00
9419;BME280;4748;50.802;7.132;2022-09-29T03:59:08;99445.44;;;7.51;100.00
9419;BME280;4748;50.802;7.132;2022-09-29T04:01:36;99447.16;;;7.57;100.00
9419;BME280;4748;50.802;7.132;2022-09-29T04:04:02;99451.00;;;7.61;100.00
9419;BME280;4748;50.802;7.132;2022-09-29T04:06:28;99450.75;;;7.51;100.00
9419;BME280;4748;50.802;7.132;2022-09-29T04:08:53;99459.19;;;7.59;100.00
9419;BME280;4748;50.802;7.132;2022-09-29T04:11:19;99460.94;;;7.65;100.00
9419;BME280;4748;50.802;7.132;2022-09-29T04:13:44;99459.56;;;7.62;100.00
9419;BME280;4748;50.802;7.132;2022-09-29T04:16:09;99460.25;;;7.58;100.00
9419;BME280;4748;50.802;7.132;2022-09-29T04:18:35;99459.88;;;7.66;100.00
9419;BME280;4748;50.802;7.132;2022-09-29T04:21:07;99470.06;;;7.46;100.00
9419;BME280;4748;50.802;7.132;2022-09-29T04:23:34;99467.88;;;7.55;100.00
9419;BME280;4748;50.802;7.132;2022-09-29T04:25:59;99467.63;;;7.56;100.00
9419;BME280;4748;50.802;7.132;2022-09-29T04:28:30;99468.09;;;7.53;100.00
9419;BME280;4748;50.802;7.132;2022-09-29T04:30:56;99480.94;;;7.45;100.00
9419;BME280;4748;50.802;7.132;2022-09-29T04:33:21;99481.28;;;7.37;100.00
9419;BME280;4748;50.802;7.132;2022-09-29T04:35:47;99488.31;;;7.31;100.00
9419;BME280;4748;50.802;7.132;2022-09-29T04:38:12;99487.81;;;7.23;100.00
9419;BME280;4748;50.802;7.132;2022-09-29T04:40:37;99485.84;;;7.18;100.00
9419;BME280;4748;50.802;7.132;2022-09-29T04:43:03;99484.22;;;7.17;100.00
9419;BME280;4748;50.802;7.132;2022-09-29T04:45:29;99483.41;;;7.17;100.00
9419;BME280;4748;50.802;7.132;2022-09-29T04:47:55;99484.69;;;7.14;100.00
9419;BME280;4748;50.802;7.132;2022-09-29T04:50:21;99487.00;;;7.11;100.00
9419;BME280;4748;50.802;7.132;2022-09-29T04:52:46;99495.16;;;7.09;100.00
9419;BME280;4748;50.802;7.132;2022-09-29T04:55:12;99490.44;;;7.11;100.00
9419;BME280;4748;50.802;7.132;2022-09-29T04:57:38;99493.13;;;7.11;100.00
9419;BME280;4748;50.802;7.132;2022-09-29T05:00:05;99493.91;;;7.12;100.00
9419;BME280;4748;50.802;7.132;2022-09-29T05:02:32;99505.16;;;7.14;100.00
9419;BME280;4748;50.802;7.132;2022-09-29T05:04:57;99502.03;;;7.17;100.00
9419;BME280;4748;50.802;7.132;2022-09-29T05:07:23;99503.84;;;7.05;100.00
9419;BME280;4748;50.802;7.132;2022-09-29T05:09:48;99503.25;;;7.03;100.00
9419;BME280;4748;50.802;7.132;2022-09-29T05:12:13;99505.63;;;7.11;100.00
9419;BME280;4748;50.802;7.132;2022-09-29T05:14:38;99504.47;;;7.18;100.00
9419;BME280;4748;50.802;7.132;2022-09-29T05:17:04;99507.38;;;7.17;100.00
9419;BME280;4748;50.802;7.132;2022-09-29T05:19:29;99508.75;;;7.19;100.00
9419;BME280;4748;50.802;7.132;2022-09-29T05:21:57;99510.59;;;7.19;100.00
9419;BME280;4748;50.802;7.132;2022-09-29T05:24:22;99513.16;;;7.14;100.00
9419;BME280;4748;50.802;7.132;2022-09-29T05:26:48;99516.16;;;7.17;100.00
9419;BME280;4748;50.802;7.132;2022-09-29T05:29:13;99516.03;;;7.12;100.00
9419;BME280;4748;50.802;7.132;2022-09-29T05:31:38;99517.84;;;7.12;100.00
9419;BME280;4748;50.802;7.132;2022-09-29T05:34:04;99522.69;;;7.04;100.00
9419;BME280;4748;50.802;7.132;2022-09-29T05:36:29;99519.91;;;6.99;100.00
9419;BME280;4748;50.802;7.132;2022-09-29T05:38:54;99523.97;;;7.01;100.00
9419;BME280;4748;50.802;7.132;2022-09-29T05:41:20;99518.94;;;6.93;100.00
9419;BME280;4748;50.802;7.132;2022-09-29T05:43:49;99520.25;;;7.02;100.00
9419;BME280;4748;50.802;7.132;2022-09-29T05:46:15;99521.66;;;7.05;100.00
9419;BME280;4748;50.802;7.132;2022-09-29T05:48:42;99521.59;;;6.93;100.00
9419;BME280;4748;50.802;7.132;2022-09-29T05:51:12;99525.00;;;7.00;100.00
9419;BME280;4748;50.802;7.132;2022-09-29T05:53:38;99526.28;;;7.09;100.00
9419;BME280;4748;50.802;7.132;2022-09-29T05:56:05;99516.09;;;7.06;100.00
9419;BME280;4748;50.802;7.132;2022-09-29T05:58:31;99520.53;;;7.12;100.00
9419;BME280;4748;50.802;7.132;2022-09-29T06:00:57;99519.63;;;7.18;100.00
9419;BME280;4748;50.802;7.132;2022-09-29T06:03:22;99525.09;;;7.23;100.00
9419;BME280;4748;50.802;7.132;2022-09-29T06:05:47;99526.38;;;7.32;100.00
9419;BME280;4748;50.802;7.132;2022-09-29T06:08:13;99534.59;;;7.30;100.00
9419;BME280;4748;50.802;7.132;2022-09-29T06:10:38;99534.06;;;7.40;100.00
9419;BME280;4748;50.802;7.132;2022-09-29T06:13:03;99540.16;;;7.29;100.00
9419;BME280;4748;50.802;7.132;2022-09-29T06:15:29;99531.50;;;7.45;100.00
9419;BME280;4748;50.802;7.132;2022-09-29T06:17:56;99538.47;;;7.46;100.00
9419;BME280;4748;50.802;7.132;2022-09-29T06:20:22;99531.78;;;7.55;100.00
9419;BME280;4748;50.802;7.132;2022-09-29T06:22:47;99541.31;;;7.62;100.00
9419;BME280;4748;50.802;7.132;2022-09-29T06:25:13;99530.06;;;7.71;100.00
9419;BME280;4748;50.802;7.132;2022-09-29T06:27:39;99536.13;;;7.90;100.00
9419;BME280;4748;50.802;7.132;2022-09-29T06:30:05;99547.63;;;8.02;100.00
9419;BME280;4748;50.802;7.132;2022-09-29T06:32:30;99546.31;;;8.04;100.00
9419;BME280;4748;50.802;7.132;2022-09-29T06:34:58;99547.25;;;8.10;100.00
9419;BME280;4748;50.802;7.132;2022-09-29T06:37:42;99555.53;;;8.19;100.00
9419;BME280;4748;50.802;7.132;2022-09-29T06:40:10;99551.78;;;8.09;100.00
9419;BME280;4748;50.802;7.132;2022-09-29T06:42:36;99554.50;;;8.20;100.00
9419;BME280;4748;50.802;7.132;2022-09-29T06:45:02;99555.44;;;8.26;100.00
9419;BME280;4748;50.802;7.132;2022-09-29T06:47:28;99559.94;;;8.25;100.00
9419;BME280;4748;50.802;7.132;2022-09-29T06:49:53;99565.72;;;8.34;100.00
9419;BME280;4748;50.802;7.132;2022-09-29T06:52:19;99554.34;;;8.50;100.00
9419;BME280;4748;50.802;7.132;2022-09-29T06:54:44;99561.78;;;8.59;100.00
9419;BME280;4748;50.802;7.132;2022-09-29T06:57:10;99561.22;;;8.57;100.00
9419;BME280;4748;50.802;7.132;2022-09-29T06:59:36;99566.66;;;8.51;100.00
9419;BME280;4748;50.802;7.132;2022-09-29T07:02:01;99561.06;;;8.63;100.00
9419;BME280;4748;50.802;7.132;2022-09-29T07:04:27;99557.00;;;8.84;100.00
9419;BME280;4748;50.802;7.132;2022-09-29T07:06:52;99571.22;;;9.28;100.00
9419;BME280;4748;50.802;7.132;2022-09-29T07:09:18;99569.66;;;9.44;100.00
9419;BME280;4748;50.802;7.132;2022-09-29T07:11:46;99577.63;;;9.55;100.00
9419;BME280;4748;50.802;7.132;2022-09-29T07:14:16;99581.53;;;9.64;100.00
9419;BME280;4748;50.802;7.132;2022-09-29T07:16:42;99580.41;;;9.76;100.00
9419;BME280;4748;50.802;7.132;2022-09-29T07:19:08;99581.88;;;9.67;100.00
9419;BME280;4748;50.802;7.132;2022-09-29T07:21:34;99588.44;;;9.76;100.00
9419;BME280;4748;50.802;7.132;2022-09-29T07:23:59;99592.94;;;10.04;100.00
9419;BME280;4748;50.802;7.132;2022-09-29T07:26:25;99595.47;;;9.82;100.00
9419;BME280;4748;50.802;7.132;2022-09-29T07:28:50;99601.31;;;9.79;100.00
9419;BME280;4748;50.802;7.132;2022-09-29T07:31:18;99598.47;;;9.69;100.00
9419;BME280;4748;50.802;7.132;2022-09-29T07:33:44;99596.63;;;9.86;100.00
9419;BME280;4748;50.802;7.132;2022-09-29T07:36:11;99595.31;;;9.72;100.00
9419;BME280;4748;50.802;7.132;2022-09-29T07:38:36;99592.56;;;10.12;100.00
9419;BME280;4748;50.802;7.132;2022-09-29T07:41:04;99595.09;;;9.90;100.00
9419;BME280;4748;50.802;7.132;2022-09-29T07:43:30;99592.25;;;9.80;100.00
9419;BME280;4748;50.802;7.132;2022-09-29T07:45:55;99590.13;;;9.82;100.00
9419;BME280;4748;50.802;7.132;2022-09-29T07:48:21;99596.38;;;9.88;100.00
9419;BME280;4748;50.802;7.132;2022-09-29T07:50:47;99597.78;;;9.90;100.00
9419;BME280;4748;50.802;7.132;2022-09-29T07:53:13;99598.38;;;10.09;100.00
9419;BME280;4748;50.802;7.132;2022-09-29T07:55:39;99605.28;;;10.05;100.00
9419;BME280;4748;50.802;7.132;2022-09-29T07:58:05;99611.44;;;10.21;100.00
9419;BME280;4748;50.802;7.132;2022-09-29T08:00:31;99613.13;;;10.60;100.00
9419;BME280;4748;50.802;7.132;2022-09-29T08:03:04;99616.78;;;10.54;100.00
9419;BME280;4748;50.802;7.132;2022-09-29T08:05:32;99606.53;;;10.68;100.00
9419;BME280;4748;50.802;7.132;2022-09-29T08:08:01;99616.19;;;10.68;100.00
9419;BME280;4748;50.802;7.132;2022-09-29T08:10:29;99621.44;;;10.80;100.00
9419;BME280;4748;50.802;7.132;2022-09-29T08:12:55;99621.97;;;10.98;100.00
9419;BME280;4748;50.802;7.132;2022-09-29T08:15:21;99629.38;;;11.34;100.00
9419;BME280;4748;50.802;7.132;2022-09-29T08:17:46;99622.38;;;11.49;100.00
9419;BME280;4748;50.802;7.132;2022-09-29T08:20:12;99631.69;;;11.47;100.00
9419;BME280;4748;50.802;7.132;2022-09-29T08:22:37;99636.63;;;11.76;100.00
9419;BME280;4748;50.802;7.132;2022-09-29T08:25:03;99629.59;;;11.70;100.00
9419;BME280;4748;50.802;7.132;2022-09-29T08:27:28;99637.31;;;11.67;100.00
9419;BME280;4748;50.802;7.132;2022-09-29T08:29:53;99643.34;;;11.78;100.00
9419;BME280;4748;50.802;7.132;2022-09-29T08:32:20;99648.72;;;11.78;100.00
9419;BME280;4748;50.802;7.132;2022-09-29T08:34:45;99648.84;;;11.88;100.00
9419;BME280;4748;50.802;7.132;2022-09-29T08:37:11;99649.13;;;12.18;100.00
9419;BME280;4748;50.802;7.132;2022-09-29T08:39:36;99654.75;;;12.48;100.00
9419;BME280;4748;50.802;7.132;2022-09-29T08:42:28;99660.41;;;12.20;100.00
9419;BME280;4748;50.802;7.132;2022-09-29T08:45:04;99660.69;;;12.23;100.00
9419;BME280;4748;50.802;7.132;2022-09-29T08:47:48;99667.03;;;12.13;100.00
9419;BME280;4748;50.802;7.132;2022-09-29T08:50:34;99657.63;;;12.10;100.00
9419;BME280;4748;50.802;7.132;2022-09-29T08:53:05;99662.03;;;12.21;100.00
9419;BME280;4748;50.802;7.132;2022-09-29T08:55:44;99666.22;;;12.43;100.00
9419;BME280;4748;50.802;7.132;2022-09-29T08:58:12;99661.81;;;12.59;100.00
9419;BME280;4748;50.802;7.132;2022-09-29T09:16:53;99649.41;;;13.30;100.00
9419;BME280;4748;50.802;7.132;2022-09-29T09:19:33;99660.38;;;13.19;100.00
9419;BME280;4748;50.802;7.132;2022-09-29T09:25:18;99666.72;;;13.54;100.00
9419;BME280;4748;50.802;7.132;2022-09-29T09:27:48;99667.84;;;13.68;100.00
9419;BME280;4748;50.802;7.132;2022-09-29T09:30:21;99663.78;;;13.65;100.00
9419;BME280;4748;50.802;7.132;2022-09-29T09:33:00;99673.00;;;13.74;100.00
9419;BME280;4748;50.802;7.132;2022-09-29T09:35:36;99670.03;;;13.80;100.00
9419;BME280;4748;50.802;7.132;2022-09-29T09:38:14;99668.41;;;13.70;100.00
9419;BME280;4748;50.802;7.132;2022-09-29T09:40:50;99666.00;;;13.83;100.00
9419;BME280;4748;50.802;7.132;2022-09-29T09:43:23;99668.97;;;13.86;100.00
9419;BME280;4748;50.802;7.132;2022-09-29T09:45:59;99667.97;;;14.02;100.00
9419;BME280;4748;50.802;7.132;2022-09-29T09:48:37;99667.38;;;13.90;100.00
9419;BME280;4748;50.802;7.132;2022-09-29T09:51:29;99672.50;;;13.87;100.00
9419;BME280;4748;50.802;7.132;2022-09-29T09:54:00;99662.59;;;14.07;100.00
9419;BME280;4748;50.802;7.132;2022-09-29T09:56:53;99659.41;;;14.15;100.00
9419;BME280;4748;50.802;7.132;2022-09-29T09:59:46;99662.66;;;14.22;100.00
9419;BME280;4748;50.802;7.132;2022-09-29T10:02:19;99668.00;;;14.12;100.00
9419;BME280;4748;50.802;7.132;2022-09-29T10:04:47;99662.41;;;14.43;100.00
9419;BME280;4748;50.802;7.132;2022-09-29T10:07:15;99662.63;;;14.27;100.00
9419;BME280;4748;50.802;7.132;2022-09-29T10:09:41;99661.03;;;14.51;100.00
9419;BME280;4748;50.802;7.132;2022-09-29T10:12:13;99668.06;;;14.62;100.00
9419;BME280;4748;50.802;7.132;2022-09-29T10:14:53;99662.38;;;14.73;100.00
9419;BME280;4748;50.802;7.132;2022-09-29T10:17:24;99661.03;;;14.56;100.00
9419;BME280;4748;50.802;7.132;2022-09-29T10:20:03;99662.66;;;14.67;100.00
9419;BME280;4748;50.802;7.132;2022-09-29T10:22:29;99665.59;;;14.75;100.00
9419;BME280;4748;50.802;7.132;2022-09-29T10:25:18;99668.28;;;14.70;100.00
9419;BME280;4748;50.802;7.132;2022-09-29T10:27:52;99664.25;;;14.63;100.00
9419;BME280;4748;50.802;7.132;2022-09-29T10:30:33;99669.09;;;14.90;100.00
9419;BME280;4748;50.802;7.132;2022-09-29T10:33:04;99673.41;;;15.01;100.00
9419;BME280;4748;50.802;7.132;2022-09-29T10:35:37;99674.47;;;14.95;100.00
9419;BME280;4748;50.802;7.132;2022-09-29T10:38:14;99666.66;;;14.94;100.00
9419;BME280;4748;50.802;7.132;2022-09-29T10:40:59;99673.94;;;14.93;100.00
9419;BME280;4748;50.802;7.132;2022-09-29T10:43:47;99676.09;;;15.21;100.00
9419;BME280;4748;50.802;7.132;2022-09-29T10:49:19;99677.06;;;15.45;100.00
9419;BME280;4748;50.802;7.132;2022-09-29T10:54:17;99674.34;;;15.60;100.00
9419;BME280;4748;50.802;7.132;2022-09-29T10:56:47;99675.38;;;15.74;100.00
9419;BME280;4748;50.802;7.132;2022-09-29T10:59:15;99672.34;;;15.80;100.00
9419;BME280;4748;50.802;7.132;2022-09-29T11:01:49;99678.34;;;15.72;100.00
9419;BME280;4748;50.802;7.132;2022-09-29T11:04:21;99686.16;;;15.74;100.00
9419;BME280;4748;50.802;7.132;2022-09-29T11:06:48;99687.28;;;15.58;100.00
9419;BME280;4748;50.802;7.132;2022-09-29T11:16:55;99684.13;;;15.99;100.00
9419;BME280;4748;50.802;7.132;2022-09-29T11:19:27;99687.03;;;16.12;100.00
9419;BME280;4748;50.802;7.132;2022-09-29T11:27:35;99681.41;;;16.47;100.00
9419;BME280;4748;50.802;7.132;2022-09-29T11:32:47;99682.41;;;16.61;100.00
9419;BME280;4748;50.802;7.132;2022-09-29T11:45:55;99683.97;;;16.67;100.00
9419;BME280;4748;50.802;7.132;2022-09-29T11:53:38;99687.44;;;17.05;100.00
9419;BME280;4748;50.802;7.132;2022-09-29T12:04:22;99690.19;;;17.29;100.00
9419;BME280;4748;50.802;7.132;2022-09-29T12:09:50;99680.88;;;17.39;98.35
9419;BME280;4748;50.802;7.132;2022-09-29T12:12:48;99696.38;;;17.29;96.32
9419;BME280;4748;50.802;7.132;2022-09-29T12:15:34;99687.25;;;17.25;100.00
9419;BME280;4748;50.802;7.132;2022-09-29T12:18:07;99697.50;;;16.95;100.00
9419;BME280;4748;50.802;7.132;2022-09-29T12:20:35;99682.03;;;17.05;100.00
9419;BME280;4748;50.802;7.132;2022-09-29T12:23:09;99689.00;;;17.06;100.00
9419;BME280;4748;50.802;7.132;2022-09-29T12:25:42;99680.03;;;17.11;100.00
9419;BME280;4748;50.802;7.132;2022-09-29T12:28:16;99686.09;;;17.03;100.00
9419;BME280;4748;50.802;7.132;2022-09-29T12:30:49;99678.19;;;17.06;100.00
9419;BME280;4748;50.802;7.132;2022-09-29T12:33:51;99675.03;;;16.99;92.95
9419;BME280;4748;50.802;7.132;2022-09-29T12:36:24;99674.59;;;17.16;100.00
9419;BME280;4748;50.802;7.132;2022-09-29T12:42:51;99675.91;;;17.23;97.95
9419;BME280;4748;50.802;7.132;2022-09-29T12:48:24;99670.09;;;17.35;95.87
9419;BME280;4748;50.802;7.132;2022-09-29T12:51:19;99673.22;;;17.18;91.57
9419;BME280;4748;50.802;7.132;2022-09-29T12:54:05;99675.56;;;17.01;100.00
9419;BME280;4748;50.802;7.132;2022-09-29T12:56:49;99669.50;;;16.81;100.00
9419;BME280;4748;50.802;7.132;2022-09-29T13:01:58;99676.72;;;16.90;100.00
9419;BME280;4748;50.802;7.132;2022-09-29T13:12:51;99668.94;;;17.12;79.47
9419;BME280;4748;50.802;7.132;2022-09-29T13:15:38;99669.78;;;17.36;87.07
9419;BME280;4748;50.802;7.132;2022-09-29T13:23:44;99668.63;;;17.19;92.26
9419;BME280;4748;50.802;7.132;2022-09-29T13:26:26;99675.22;;;17.36;84.10
9419;BME280;4748;50.802;7.132;2022-09-29T13:28:59;99676.34;;;17.53;93.97
9419;BME280;4748;50.802;7.132;2022-09-29T13:31:28;99673.03;;;17.61;94.87
9419;BME280;4748;50.802;7.132;2022-09-29T13:33:58;99674.81;;;17.71;95.58
9419;BME280;4748;50.802;7.132;2022-09-29T13:36:33;99669.44;;;17.66;88.18
9419;BME280;4748;50.802;7.132;2022-09-29T13:39:02;99677.06;;;17.64;92.76
9419;BME280;4748;50.802;7.132;2022-09-29T13:48:52;99671.28;;;17.70;92.73
9419;BME280;4748;50.802;7.132;2022-09-29T13:51:45;99677.41;;;17.81;89.95
9419;BME280;4748;50.802;7.132;2022-09-29T13:56:49;99674.91;;;17.84;90.89
9419;BME280;4748;50.802;7.132;2022-09-29T13:59:20;99677.47;;;17.94;91.97
9419;BME280;4748;50.802;7.132;2022-09-29T14:01:48;99679.41;;;18.12;93.38
9419;BME280;4748;50.802;7.132;2022-09-29T14:04:41;99681.06;;;17.89;75.57
9419;BME280;4748;50.802;7.132;2022-09-29T14:07:10;99686.03;;;17.83;87.39
9419;BME280;4748;50.802;7.132;2022-09-29T14:09:40;99682.09;;;17.93;88.73
9419;BME280;4748;50.802;7.132;2022-09-29T14:12:17;99689.72;;;18.10;82.64
9419;BME280;4748;50.802;7.132;2022-09-29T14:14:51;99686.63;;;17.98;85.40
9419;BME280;4748;50.802;7.132;2022-09-29T14:17:34;99685.59;;;18.17;77.74
9419;BME280;4748;50.802;7.132;2022-09-29T14:20:07;99700.16;;;18.21;84.05
9419;BME280;4748;50.802;7.132;2022-09-29T14:27:38;99699.16;;;17.94;88.91
9419;BME280;4748;50.802;7.132;2022-09-29T14:38:02;99708.81;;;18.00;81.11
9419;BME280;4748;50.802;7.132;2022-09-29T14:40:29;99704.84;;;17.92;91.49
9419;BME280;4748;50.802;7.132;2022-09-29T14:43:11;99717.31;;;17.70;81.05
9419;BME280;4748;50.802;7.132;2022-09-29T14:54:55;99722.19;;;17.91;90.91
9419;BME280;4748;50.802;7.132;2022-09-29T15:00:11;99712.41;;;17.95;89.70
9419;BME280;4748;50.802;7.132;2022-09-29T15:02:47;99719.03;;;17.85;82.27
9419;BME280;4748;50.802;7.132;2022-09-29T15:07:51;99725.66;;;17.97;90.51
9419;BME280;4748;50.802;7.132;2022-09-29T15:10:26;99719.56;;;17.87;82.50
9419;BME280;4748;50.802;7.132;2022-09-29T15:15:42;99727.41;;;17.88;91.24
9419;BME280;4748;50.802;7.132;2022-09-29T15:18:49;99718.63;;;17.96;83.50
9419;BME280;4748;50.802;7.132;2022-09-29T15:21:22;99734.19;;;17.86;87.70
9419;BME280;4748;50.802;7.132;2022-09-29T15:26:32;99732.22;;;17.91;88.80
9419;BME280;4748;50.802;7.132;2022-09-29T15:28:59;99728.19;;;17.88;91.50
9419;BME280;4748;50.802;7.132;2022-09-29T15:31:28;99733.72;;;17.79;93.82
9419;BME280;4748;50.802;7.132;2022-09-29T15:33:55;99733.34;;;17.67;95.37
9419;BME280;4748;50.802;7.132;2022-09-29T15:36:23;99739.84;;;17.66;95.34
9419;BME280;4748;50.802;7.132;2022-09-29T15:41:46;99750.66;;;17.66;96.17
9419;BME280;4748;50.802;7.132;2022-09-29T15:44:13;99757.16;;;17.41;96.16
9419;BME280;4748;50.802;7.132;2022-09-29T15:46:50;99751.94;;;17.50;93.73
9419;BME280;4748;50.802;7.132;2022-09-29T15:49:19;99755.81;;;17.39;95.44
9419;BME280;4748;50.802;7.132;2022-09-29T15:52:04;99756.19;;;17.33;96.75
9419;BME280;4748;50.802;7.132;2022-09-29T15:54:35;99771.03;;;17.35;96.30
9419;BME280;4748;50.802;7.132;2022-09-29T15:57:05;99768.28;;;17.40;98.71
9419;BME280;4748;50.802;7.132;2022-09-29T15:59:54;99770.06;;;17.16;98.50
9419;BME280;4748;50.802;7.132;2022-09-29T16:02:24;99783.03;;;17.19;98.20
9419;BME280;4748;50.802;7.132;2022-09-29T16:05:04;99780.38;;;17.14;99.99
9419;BME280;4748;50.802;7.132;2022-09-29T16:07:36;99789.88;;;17.12;100.00
9419;BME280;4748;50.802;7.132;2022-09-29T16:10:12;99791.69;;;17.21;95.97
9419;BME280;4748;50.802;7.132;2022-09-29T16:12:48;99799.63;;;17.13;99.54
9419;BME280;4748;50.802;7.132;2022-09-29T16:15:28;99803.47;;;17.02;98.31
9419;BME280;4748;50.802;7.132;2022-09-29T16:17:56;99810.31;;;16.89;100.00
9419;BME280;4748;50.802;7.132;2022-09-29T16:20:26;99810.53;;;16.98;100.00
9419;BME280;4748;50.802;7.132;2022-09-29T16:22:53;99804.25;;;16.69;100.00
9419;BME280;4748;50.802;7.132;2022-09-29T16:25:24;99814.19;;;16.79;100.00
9419;BME280;4748;50.802;7.132;2022-09-29T16:27:59;99811.91;;;16.57;100.00
9419;BME280;4748;50.802;7.132;2022-09-29T16:30:32;99812.13;;;16.61;100.00
9419;BME280;4748;50.802;7.132;2022-09-29T16:35:45;99827.66;;;16.40;100.00
9419;BME280;4748;50.802;7.132;2022-09-29T16:38:34;99828.78;;;16.35;100.00
9419;BME280;4748;50.802;7.132;2022-09-29T16:41:18;99825.84;;;16.26;100.00
9419;BME280;4748;50.802;7.132;2022-09-29T16:43:44;99829.06;;;16.18;100.00
9419;BME280;4748;50.802;7.132;2022-09-29T16:46:21;99835.31;;;16.09;100.00
9419;BME280;4748;50.802;7.132;2022-09-29T16:48:48;99835.84;;;16.06;100.00
9419;BME280;4748;50.802;7.132;2022-09-29T16:51:20;99838.63;;;15.91;100.00
9419;BME280;4748;50.802;7.132;2022-09-29T16:53:47;99836.75;;;15.82;100.00
9419;BME280;4748;50.802;7.132;2022-09-29T16:56:17;99855.63;;;15.82;100.00
9419;BME280;4748;50.802;7.132;2022-09-29T16:58:43;99850.25;;;15.77;100.00
9419;BME280;4748;50.802;7.132;2022-09-29T17:01:10;99859.72;;;15.74;100.00
9419;BME280;4748;50.802;7.132;2022-09-29T17:03:38;99863.19;;;15.75;100.00
9419;BME280;4748;50.802;7.132;2022-09-29T17:06:03;99863.22;;;15.70;100.00
9419;BME280;4748;50.802;7.132;2022-09-29T17:08:31;99856.50;;;15.52;100.00
9419;BME280;4748;50.802;7.132;2022-09-29T17:10:59;99857.84;;;15.50;100.00
9419;BME280;4748;50.802;7.132;2022-09-29T17:13:29;99858.38;;;15.42;100.00
9419;BME280;4748;50.802;7.132;2022-09-29T17:15:55;99867.56;;;15.46;100.00
9419;BME280;4748;50.802;7.132;2022-09-29T17:18:20;99868.34;;;15.36;100.00
9419;BME280;4748;50.802;7.132;2022-09-29T17:20:49;99869.69;;;15.19;100.00
9419;BME280;4748;50.802;7.132;2022-09-29T17:23:15;99874.53;;;15.07;100.00
9419;BME280;4748;50.802;7.132;2022-09-29T17:25:44;99879.59;;;14.94;100.00
9419;BME280;4748;50.802;7.132;2022-09-29T17:28:19;99882.84;;;14.86;100.00
9419;BME280;4748;50.802;7.132;2022-09-29T17:30:48;99874.47;;;14.78;100.00
9419;BME280;4748;50.802;7.132;2022-09-29T17:33:15;99877.69;;;14.75;100.00
9419;BME280;4748;50.802;7.132;2022-09-29T17:35:46;99886.31;;;14.72;100.00
9419;BME280;4748;50.802;7.132;2022-09-29T17:38:13;99883.06;;;14.65;100.00
9419;BME280;4748;50.802;7.132;2022-09-29T17:40:45;99885.97;;;14.58;100.00
9419;BME280;4748;50.802;7.132;2022-09-29T17:43:12;99887.56;;;14.54;100.00
9419;BME280;4748;50.802;7.132;2022-09-29T17:45:37;99892.91;;;14.39;100.00
9419;BME280;4748;50.802;7.132;2022-09-29T17:48:06;99904.50;;;14.40;100.00
9419;BME280;4748;50.802;7.132;2022-09-29T17:50:37;99907.16;;;14.35;100.00
9419;BME280;4748;50.802;7.132;2022-09-29T17:53:06;99902.81;;;14.29;100.00
9419;BME280;4748;50.802;7.132;2022-09-29T17:55:33;99901.16;;;14.18;100.00
9419;BME280;4748;50.802;7.132;2022-09-29T17:57:58;99908.66;;;14.11;100.00
9419;BME280;4748;50.802;7.132;2022-09-29T18:00:26;99916.91;;;14.05;100.00
9419;BME280;4748;50.802;7.132;2022-09-29T18:02:53;99920.38;;;14.00;100.00
9419;BME280;4748;50.802;7.132;2022-09-29T18:05:22;99909.09;;;13.98;100.00
9419;BME280;4748;50.802;7.132;2022-09-29T18:07:53;99918.75;;;13.94;100.00
9419;BME280;4748;50.802;7.132;2022-09-29T18:10:25;99920.00;;;13.82;100.00
9419;BME280;4748;50.802;7.132;2022-09-29T18:12:51;99927.72;;;13.74;100.00
9419;BME280;4748;50.802;7.132;2022-09-29T18:15:17;99922.59;;;13.67;100.00
9419;BME280;4748;50.802;7.132;2022-09-29T18:17:43;99923.31;;;13.58;100.00
9419;BME280;4748;50.802;7.132;2022-09-29T18:20:19;99922.16;;;13.49;100.00
9419;BME280;4748;50.802;7.132;2022-09-29T18:22:45;99930.16;;;13.44;100.00
9419;BME280;4748;50.802;7.132;2022-09-29T18:25:13;99934.38;;;13.30;100.00
9419;BME280;4748;50.802;7.132;2022-09-29T18:27:40;99932.75;;;13.29;100.00
9419;BME280;4748;50.802;7.132;2022-09-29T18:30:21;99929.69;;;13.21;100.00
9419;BME280;4748;50.802;7.132;2022-09-29T18:32:50;99935.31;;;13.19;100.00
9419;BME280;4748;50.802;7.132;2022-09-29T18:35:39;99937.50;;;13.22;100.00
9419;BME280;4748;50.802;7.132;2022-09-29T18:38:06;99945.50;;;13.17;100.00
9419;BME280;4748;50.802;7.132;2022-09-29T18:40:31;99947.66;;;13.15;100.00
9419;BME280;4748;50.802;7.132;2022-09-29T18:42:57;99951.91;;;13.11;100.00
9419;BME280;4748;50.802;7.132;2022-09-29T18:45:29;99947.50;;;13.00;100.00
9419;BME280;4748;50.802;7.132;2022-09-29T18:48:00;99950.81;;;12.86;100.00
9419;BME280;4748;50.802;7.132;2022-09-29T18:50:32;99964.34;;;12.74;100.00
9419;BME280;4748;50.802;7.132;2022-09-29T18:52:58;99959.97;;;12.69;100.00
9419;BME280;4748;50.802;7.132;2022-09-29T18:55:26;99966.91;;;12.65;100.00
9419;BME280;4748;50.802;7.132;2022-09-29T18:57:53;99969.59;;;12.65;100.00
9419;BME280;4748;50.802;7.132;2022-09-29T19:00:21;99967.91;;;12.59;100.00
9419;BME280;4748;50.802;7.132;2022-09-29T19:02:47;99979.59;;;12.48;100.00
9419;BME280;4748;50.802;7.132;2022-09-29T19:05:15;99981.66;;;12.41;100.00
9419;BME280;4748;50.802;7.132;2022-09-29T19:07:43;99985.00;;;12.31;100.00
9419;BME280;4748;50.802;7.132;2022-09-29T19:10:10;99989.41;;;12.21;100.00
9419;BME280;4748;50.802;7.132;2022-09-29T19:12:35;99990.97;;;12.17;100.00
9419;BME280;4748;50.802;7.132;2022-09-29T19:15:01;99991.94;;;12.11;100.00
9419;BME280;4748;50.802;7.132;2022-09-29T19:17:27;99993.09;;;11.99;100.00
9419;BME280;4748;50.802;7.132;2022-09-29T19:19:55;99999.00;;;12.01;100.00
9419;BME280;4748;50.802;7.132;2022-09-29T19:22:20;99997.16;;;12.01;100.00
9419;BME280;4748;50.802;7.132;2022-09-29T19:24:46;100001.69;;;12.01;100.00